sensor_id;sensor_type;location;lat;lon;timestamp;temperature;humidity
38020;DHT22;23829;51.350;17.286;2024-03-06T00:01:16;18.90;30.80
38020;DHT22;23829;51.350;17.286;2024-03-06T00:03:50;19.00;30.10
38020;DHT22;23829;51.350;17.286;2024-03-06T00:06:17;19.10;30.10
38020;DHT22;23829;51.350;17.286;2024-03-06T00:08:43;19.10;30.00
38020;DHT22;23829;51.350;17.286;2024-03-06T00:11:09;19.00;30.10
38020;DHT22;23829;51.350;17.286;2024-03-06T00:13:35;18.90;30.40
38020;DHT22;23829;51.350;17.286;2024-03-06T00:16:02;18.80;30.50
38020;DHT22;23829;51.350;17.286;2024-03-06T00:18:28;18.70;30.70
38020;DHT22;23829;51.350;17.286;2024-03-06T00:20:55;18.80;31.00
38020;DHT22;23829;51.350;17.286;2024-03-06T00:23:21;18.90;30.30
38020;DHT22;23829;51.350;17.286;2024-03-06T00:25:47;18.70;30.50
38020;DHT22;23829;51.350;17.286;2024-03-06T00:28:14;18.70;30.50
38020;DHT22;23829;51.350;17.286;2024-03-06T00:30:40;18.70;30.70
38020;DHT22;23829;51.350;17.286;2024-03-06T00:33:06;18.70;30.70
38020;DHT22;23829;51.350;17.286;2024-03-06T00:35:33;18.60;30.60
38020;DHT22;23829;51.350;17.286;2024-03-06T00:37:59;18.70;30.70
38020;DHT22;23829;51.350;17.286;2024-03-06T00:40:29;18.80;30.20
38020;DHT22;23829;51.350;17.286;2024-03-06T00:42:58;18.80;30.10
38020;DHT22;23829;51.350;17.286;2024-03-06T00:45:24;18.70;30.70
38020;DHT22;23829;51.350;17.286;2024-03-06T00:47:51;18.50;31.00
38020;DHT22;23829;51.350;17.286;2024-03-06T00:50:17;18.70;31.10
38020;DHT22;23829;51.350;17.286;2024-03-06T00:52:44;18.90;30.00
38020;DHT22;23829;51.350;17.286;2024-03-06T00:55:11;18.80;30.00
38020;DHT22;23829;51.350;17.286;2024-03-06T00:57:37;18.60;30.40
38020;DHT22;23829;51.350;17.286;2024-03-06T01:00:04;18.50;30.70
38020;DHT22;23829;51.350;17.286;2024-03-06T01:02:37;18.40;31.10
38020;DHT22;23829;51.350;17.286;2024-03-06T01:05:04;18.10;31.40
38020;DHT22;23829;51.350;17.286;2024-03-06T01:07:30;18.20;31.30
38020;DHT22;23829;51.350;17.286;2024-03-06T01:09:57;18.40;31.10
38020;DHT22;23829;51.350;17.286;2024-03-06T01:12:24;18.70;31.00
38020;DHT22;23829;51.350;17.286;2024-03-06T01:14:50;18.60;30.60
38020;DHT22;23829;51.350;17.286;2024-03-06T01:17:17;18.50;31.10
38020;DHT22;23829;51.350;17.286;2024-03-06T01:19:43;18.40;31.20
38020;DHT22;23829;51.350;17.286;2024-03-06T01:22:10;18.40;30.90
38020;DHT22;23829;51.350;17.286;2024-03-06T01:24:37;18.60;30.20
38020;DHT22;23829;51.350;17.286;2024-03-06T01:27:03;18.60;30.20
38020;DHT22;23829;51.350;17.286;2024-03-06T01:29:29;18.50;30.60
38020;DHT22;23829;51.350;17.286;2024-03-06T01:31:56;18.40;30.70
38020;DHT22;23829;51.350;17.286;2024-03-06T01:34:22;18.40;30.80
38020;DHT22;23829;51.350;17.286;2024-03-06T01:36:48;18.60;30.40
38020;DHT22;23829;51.350;17.286;2024-03-06T01:39:15;18.60;30.10
38020;DHT22;23829;51.350;17.286;2024-03-06T01:41:47;18.60;30.10
38020;DHT22;23829;51.350;17.286;2024-03-06T01:44:15;18.50;30.20
38020;DHT22;23829;51.350;17.286;2024-03-06T01:46:42;18.40;30.30
38020;DHT22;23829;51.350;17.286;2024-03-06T01:49:09;18.40;30.40
38020;DHT22;23829;51.350;17.286;2024-03-06T01:51:35;18.40;30.50
38020;DHT22;23829;51.350;17.286;2024-03-06T01:54:03;18.40;30.60
38020;DHT22;23829;51.350;17.286;2024-03-06T01:56:35;18.30;30.40
38020;DHT22;23829;51.350;17.286;2024-03-06T01:59:03;18.30;31.20
38020;DHT22;23829;51.350;17.286;2024-03-06T02:01:31;18.20;30.80
38020;DHT22;23829;51.350;17.286;2024-03-06T02:03:59;18.20;30.60
38020;DHT22;23829;51.350;17.286;2024-03-06T02:06:26;18.20;30.50
38020;DHT22;23829;51.350;17.286;2024-03-06T02:08:55;18.40;30.30
38020;DHT22;23829;51.350;17.286;2024-03-06T02:11:23;18.40;30.00
38020;DHT22;23829;51.350;17.286;2024-03-06T02:13:50;18.30;30.50
38020;DHT22;23829;51.350;17.286;2024-03-06T02:16:16;18.10;30.60
38020;DHT22;23829;51.350;17.286;2024-03-06T02:18:55;18.00;31.00
38020;DHT22;23829;51.350;17.286;2024-03-06T02:21:23;17.80;31.20
38020;DHT22;23829;51.350;17.286;2024-03-06T02:23:50;17.90;31.20
38020;DHT22;23829;51.350;17.286;2024-03-06T02:26:18;18.00;30.90
38020;DHT22;23829;51.350;17.286;2024-03-06T02:28:52;18.10;30.60
38020;DHT22;23829;51.350;17.286;2024-03-06T02:31:19;18.20;30.90
38020;DHT22;23829;51.350;17.286;2024-03-06T02:33:46;18.20;30.50
38020;DHT22;23829;51.350;17.286;2024-03-06T02:36:16;18.10;30.90
38020;DHT22;23829;51.350;17.286;2024-03-06T02:38:44;18.20;30.90
38020;DHT22;23829;51.350;17.286;2024-03-06T02:41:11;18.20;30.70
38020;DHT22;23829;51.350;17.286;2024-03-06T02:43:37;18.20;30.90
38020;DHT22;23829;51.350;17.286;2024-03-06T02:46:04;18.10;30.80
38020;DHT22;23829;51.350;17.286;2024-03-06T02:48:30;18.30;30.20
38020;DHT22;23829;51.350;17.286;2024-03-06T02:50:57;18.40;30.00
38020;DHT22;23829;51.350;17.286;2024-03-06T02:53:24;18.30;30.20
38020;DHT22;23829;51.350;17.286;2024-03-06T02:55:51;18.40;30.40
38020;DHT22;23829;51.350;17.286;2024-03-06T02:58:18;18.30;30.50
38020;DHT22;23829;51.350;17.286;2024-03-06T03:00:44;18.40;30.20
38020;DHT22;23829;51.350;17.286;2024-03-06T03:03:10;18.30;30.10
38020;DHT22;23829;51.350;17.286;2024-03-06T03:05:40;18.20;30.40
38020;DHT22;23829;51.350;17.286;2024-03-06T03:08:07;18.30;30.40
38020;DHT22;23829;51.350;17.286;2024-03-06T03:10:33;18.10;30.50
38020;DHT22;23829;51.350;17.286;2024-03-06T03:13:01;18.10;31.10
38020;DHT22;23829;51.350;17.286;2024-03-06T03:15:27;18.20;30.60
38020;DHT22;23829;51.350;17.286;2024-03-06T03:17:54;18.20;30.70
38020;DHT22;23829;51.350;17.286;2024-03-06T03:20:20;18.10;30.90
38020;DHT22;23829;51.350;17.286;2024-03-06T03:22:47;18.10;30.90
38020;DHT22;23829;51.350;17.286;2024-03-06T03:25:13;18.20;30.70
38020;DHT22;23829;51.350;17.286;2024-03-06T03:27:40;18.40;30.50
38020;DHT22;23829;51.350;17.286;2024-03-06T03:30:08;18.40;30.40
38020;DHT22;23829;51.350;17.286;2024-03-06T03:32:35;18.40;30.30
38020;DHT22;23829;51.350;17.286;2024-03-06T03:35:04;18.30;30.20
38020;DHT22;23829;51.350;17.286;2024-03-06T03:37:32;18.40;30.30
38020;DHT22;23829;51.350;17.286;2024-03-06T03:39:58;18.20;30.80
38020;DHT22;23829;51.350;17.286;2024-03-06T03:42:24;18.00;30.90
38020;DHT22;23829;51.350;17.286;2024-03-06T03:44:51;18.10;30.70
38020;DHT22;23829;51.350;17.286;2024-03-06T03:47:18;18.20;30.40
38020;DHT22;23829;51.350;17.286;2024-03-06T03:49:44;18.40;30.10
38020;DHT22;23829;51.350;17.286;2024-03-06T03:52:12;18.20;30.60
38020;DHT22;23829;51.350;17.286;2024-03-06T03:54:39;18.30;30.50
38020;DHT22;23829;51.350;17.286;2024-03-06T03:57:06;18.40;30.30
38020;DHT22;23829;51.350;17.286;2024-03-06T03:59:34;18.40;30.20
38020;DHT22;23829;51.350;17.286;2024-03-06T04:02:01;18.30;30.40
38020;DHT22;23829;51.350;17.286;2024-03-06T04:04:27;18.20;30.50
38020;DHT22;23829;51.350;17.286;2024-03-06T04:06:53;18.40;30.30
38020;DHT22;23829;51.350;17.286;2024-03-06T04:09:19;18.20;30.60
38020;DHT22;23829;51.350;17.286;2024-03-06T04:11:46;17.90;31.00
38020;DHT22;23829;51.350;17.286;2024-03-06T04:14:12;17.90;31.30
38020;DHT22;23829;51.350;17.286;2024-03-06T04:16:39;17.80;31.20
38020;DHT22;23829;51.350;17.286;2024-03-06T04:19:05;17.70;32.00
38020;DHT22;23829;51.350;17.286;2024-03-06T04:21:31;17.70;32.70
38020;DHT22;23829;51.350;17.286;2024-03-06T04:23:57;17.80;32.50
38020;DHT22;23829;51.350;17.286;2024-03-06T04:26:24;17.80;32.20
38020;DHT22;23829;51.350;17.286;2024-03-06T04:28:50;17.80;32.40
38020;DHT22;23829;51.350;17.286;2024-03-06T04:31:17;17.70;32.40
38020;DHT22;23829;51.350;17.286;2024-03-06T04:33:43;17.50;32.60
38020;DHT22;23829;51.350;17.286;2024-03-06T04:36:10;17.60;32.60
38020;DHT22;23829;51.350;17.286;2024-03-06T04:38:36;17.60;32.70
38020;DHT22;23829;51.350;17.286;2024-03-06T04:41:05;17.70;32.50
38020;DHT22;23829;51.350;17.286;2024-03-06T04:43:32;17.60;32.70
38020;DHT22;23829;51.350;17.286;2024-03-06T04:45:59;17.80;33.10
38020;DHT22;23829;51.350;17.286;2024-03-06T04:48:25;17.70;33.20
38020;DHT22;23829;51.350;17.286;2024-03-06T04:50:52;17.00;33.50
38020;DHT22;23829;51.350;17.286;2024-03-06T04:53:19;16.60;34.70
38020;DHT22;23829;51.350;17.286;2024-03-06T04:55:46;16.60;36.10
38020;DHT22;23829;51.350;17.286;2024-03-06T04:58:12;16.80;35.80
38020;DHT22;23829;51.350;17.286;2024-03-06T05:00:39;16.70;35.20
38020;DHT22;23829;51.350;17.286;2024-03-06T05:03:05;16.70;35.00
38020;DHT22;23829;51.350;17.286;2024-03-06T05:05:32;16.90;35.50
38020;DHT22;23829;51.350;17.286;2024-03-06T05:07:58;17.40;34.80
38020;DHT22;23829;51.350;17.286;2024-03-06T05:10:25;17.70;33.70
38020;DHT22;23829;51.350;17.286;2024-03-06T05:12:53;17.90;33.30
38020;DHT22;23829;51.350;17.286;2024-03-06T05:15:20;17.50;33.50
38020;DHT22;23829;51.350;17.286;2024-03-06T05:17:46;16.80;34.70
38020;DHT22;23829;51.350;17.286;2024-03-06T05:20:13;16.90;35.20
38020;DHT22;23829;51.350;17.286;2024-03-06T05:22:40;17.60;34.30
38020;DHT22;23829;51.350;17.286;2024-03-06T05:25:06;17.60;33.40
38020;DHT22;23829;51.350;17.286;2024-03-06T05:27:33;16.90;34.40
38020;DHT22;23829;51.350;17.286;2024-03-06T05:29:59;16.80;35.00
38020;DHT22;23829;51.350;17.286;2024-03-06T05:32:25;16.60;35.30
38020;DHT22;23829;51.350;17.286;2024-03-06T05:34:52;17.50;35.40
38020;DHT22;23829;51.350;17.286;2024-03-06T05:37:18;17.70;34.40
38020;DHT22;23829;51.350;17.286;2024-03-06T05:39:46;17.50;34.30
38020;DHT22;23829;51.350;17.286;2024-03-06T05:42:12;17.50;34.80
38020;DHT22;23829;51.350;17.286;2024-03-06T05:44:39;17.70;34.70
38020;DHT22;23829;51.350;17.286;2024-03-06T05:47:05;17.00;35.00
38020;DHT22;23829;51.350;17.286;2024-03-06T05:49:33;17.00;36.40
38020;DHT22;23829;51.350;17.286;2024-03-06T05:51:59;16.50;36.30
38020;DHT22;23829;51.350;17.286;2024-03-06T05:54:25;16.70;38.00
38020;DHT22;23829;51.350;17.286;2024-03-06T05:56:53;16.60;36.40
38020;DHT22;23829;51.350;17.286;2024-03-06T05:59:20;16.30;37.20
38020;DHT22;23829;51.350;17.286;2024-03-06T06:01:46;15.90;37.90
38020;DHT22;23829;51.350;17.286;2024-03-06T06:04:14;16.00;38.10
38020;DHT22;23829;51.350;17.286;2024-03-06T06:06:40;16.50;37.60
38020;DHT22;23829;51.350;17.286;2024-03-06T06:09:07;17.20;36.40
38020;DHT22;23829;51.350;17.286;2024-03-06T06:11:38;17.60;35.60
38020;DHT22;23829;51.350;17.286;2024-03-06T06:14:05;17.60;35.70
38020;DHT22;23829;51.350;17.286;2024-03-06T06:16:38;18.00;34.70
38020;DHT22;23829;51.350;17.286;2024-03-06T06:19:07;18.10;34.60
38020;DHT22;23829;51.350;17.286;2024-03-06T06:21:33;17.70;35.30
38020;DHT22;23829;51.350;17.286;2024-03-06T06:24:03;17.40;37.10
38020;DHT22;23829;51.350;17.286;2024-03-06T06:26:30;17.60;36.60
38020;DHT22;23829;51.350;17.286;2024-03-06T06:28:57;17.50;36.50
38020;DHT22;23829;51.350;17.286;2024-03-06T06:31:24;17.70;37.10
38020;DHT22;23829;51.350;17.286;2024-03-06T06:33:52;17.90;36.30
38020;DHT22;23829;51.350;17.286;2024-03-06T06:36:19;18.40;36.10
38020;DHT22;23829;51.350;17.286;2024-03-06T06:38:49;18.90;35.50
38020;DHT22;23829;51.350;17.286;2024-03-06T06:41:17;18.90;35.30
38020;DHT22;23829;51.350;17.286;2024-03-06T06:43:43;19.10;34.80
38020;DHT22;23829;51.350;17.286;2024-03-06T06:46:09;19.10;34.70
38020;DHT22;23829;51.350;17.286;2024-03-06T06:48:36;19.50;34.10
38020;DHT22;23829;51.350;17.286;2024-03-06T06:51:03;19.40;33.90
38020;DHT22;23829;51.350;17.286;2024-03-06T06:53:30;19.20;34.20
38020;DHT22;23829;51.350;17.286;2024-03-06T06:55:57;19.10;34.50
38020;DHT22;23829;51.350;17.286;2024-03-06T06:58:24;18.80;35.00
38020;DHT22;23829;51.350;17.286;2024-03-06T07:00:53;18.50;35.50
38020;DHT22;23829;51.350;17.286;2024-03-06T07:03:20;18.40;36.30
38020;DHT22;23829;51.350;17.286;2024-03-06T07:05:47;18.70;36.00
38020;DHT22;23829;51.350;17.286;2024-03-06T07:08:14;19.10;35.40
38020;DHT22;23829;51.350;17.286;2024-03-06T07:10:40;19.00;35.50
38020;DHT22;23829;51.350;17.286;2024-03-06T07:13:06;19.30;35.20
38020;DHT22;23829;51.350;17.286;2024-03-06T07:15:33;19.50;35.10
38020;DHT22;23829;51.350;17.286;2024-03-06T07:17:59;19.80;34.90
38020;DHT22;23829;51.350;17.286;2024-03-06T07:20:25;19.90;34.30
38020;DHT22;23829;51.350;17.286;2024-03-06T07:22:52;20.10;34.80
38020;DHT22;23829;51.350;17.286;2024-03-06T07:25:18;20.10;34.40
38020;DHT22;23829;51.350;17.286;2024-03-06T07:27:45;20.10;34.90
38020;DHT22;23829;51.350;17.286;2024-03-06T07:30:11;19.80;35.60
38020;DHT22;23829;51.350;17.286;2024-03-06T07:32:38;19.50;35.30
38020;DHT22;23829;51.350;17.286;2024-03-06T07:35:04;19.50;35.60
38020;DHT22;23829;51.350;17.286;2024-03-06T07:37:32;19.00;36.50
38020;DHT22;23829;51.350;17.286;2024-03-06T07:39:59;18.90;37.60
38020;DHT22;23829;51.350;17.286;2024-03-06T07:42:26;19.00;37.00
38020;DHT22;23829;51.350;17.286;2024-03-06T07:44:53;18.70;37.70
38020;DHT22;23829;51.350;17.286;2024-03-06T07:47:20;18.20;38.40
38020;DHT22;23829;51.350;17.286;2024-03-06T07:49:46;17.70;39.70
38020;DHT22;23829;51.350;17.286;2024-03-06T07:52:13;17.80;40.70
38020;DHT22;23829;51.350;17.286;2024-03-06T07:54:40;18.70;40.00
38020;DHT22;23829;51.350;17.286;2024-03-06T07:57:06;19.60;38.10
38020;DHT22;23829;51.350;17.286;2024-03-06T07:59:32;19.70;37.00
38020;DHT22;23829;51.350;17.286;2024-03-06T08:01:59;19.80;37.40
38020;DHT22;23829;51.350;17.286;2024-03-06T08:04:25;18.70;38.60
38020;DHT22;23829;51.350;17.286;2024-03-06T08:06:52;18.90;39.10
38020;DHT22;23829;51.350;17.286;2024-03-06T08:09:19;19.70;38.00
38020;DHT22;23829;51.350;17.286;2024-03-06T08:11:45;20.40;37.20
38020;DHT22;23829;51.350;17.286;2024-03-06T08:14:12;19.00;39.10
38020;DHT22;23829;51.350;17.286;2024-03-06T08:16:41;19.00;38.50
38020;DHT22;23829;51.350;17.286;2024-03-06T08:19:08;17.80;40.80
38020;DHT22;23829;51.350;17.286;2024-03-06T08:21:35;18.40;41.10
38020;DHT22;23829;51.350;17.286;2024-03-06T08:24:02;19.70;39.50
38020;DHT22;23829;51.350;17.286;2024-03-06T08:26:28;19.90;37.20
38020;DHT22;23829;51.350;17.286;2024-03-06T08:28:55;19.50;38.30
38020;DHT22;23829;51.350;17.286;2024-03-06T08:31:21;19.70;37.90
38020;DHT22;23829;51.350;17.286;2024-03-06T08:33:47;18.20;40.30
38020;DHT22;23829;51.350;17.286;2024-03-06T08:36:14;18.20;41.00
38020;DHT22;23829;51.350;17.286;2024-03-06T08:38:40;18.80;40.60
38020;DHT22;23829;51.350;17.286;2024-03-06T08:41:10;19.10;39.50
38020;DHT22;23829;51.350;17.286;2024-03-06T08:43:36;18.90;39.90
38020;DHT22;23829;51.350;17.286;2024-03-06T08:46:02;17.80;41.90
38020;DHT22;23829;51.350;17.286;2024-03-06T08:48:30;17.70;42.80
38020;DHT22;23829;51.350;17.286;2024-03-06T08:50:56;17.40;43.80
38020;DHT22;23829;51.350;17.286;2024-03-06T08:53:22;18.00;42.70
38020;DHT22;23829;51.350;17.286;2024-03-06T08:55:49;19.20;41.00
38020;DHT22;23829;51.350;17.286;2024-03-06T08:58:15;18.90;40.60
38020;DHT22;23829;51.350;17.286;2024-03-06T09:00:42;19.70;40.00
38020;DHT22;23829;51.350;17.286;2024-03-06T09:03:08;19.50;39.30
38020;DHT22;23829;51.350;17.286;2024-03-06T09:05:34;19.20;40.30
38020;DHT22;23829;51.350;17.286;2024-03-06T09:08:00;18.90;41.40
38020;DHT22;23829;51.350;17.286;2024-03-06T09:10:27;18.70;40.70
38020;DHT22;23829;51.350;17.286;2024-03-06T09:12:53;18.80;40.50
38020;DHT22;23829;51.350;17.286;2024-03-06T09:15:19;18.90;40.80
38020;DHT22;23829;51.350;17.286;2024-03-06T09:17:46;19.20;39.60
38020;DHT22;23829;51.350;17.286;2024-03-06T09:20:13;18.80;40.30
38020;DHT22;23829;51.350;17.286;2024-03-06T09:22:40;18.50;41.10
38020;DHT22;23829;51.350;17.286;2024-03-06T09:25:07;18.40;40.50
38020;DHT22;23829;51.350;17.286;2024-03-06T09:27:34;18.40;40.40
38020;DHT22;23829;51.350;17.286;2024-03-06T09:30:00;18.70;40.10
38020;DHT22;23829;51.350;17.286;2024-03-06T09:32:27;18.10;40.10
38020;DHT22;23829;51.350;17.286;2024-03-06T09:34:53;17.20;42.30
38020;DHT22;23829;51.350;17.286;2024-03-06T09:37:19;16.90;42.90
38020;DHT22;23829;51.350;17.286;2024-03-06T09:39:46;17.70;42.10
38020;DHT22;23829;51.350;17.286;2024-03-06T09:42:15;17.90;41.10
38020;DHT22;23829;51.350;17.286;2024-03-06T09:44:43;17.80;41.50
38020;DHT22;23829;51.350;17.286;2024-03-06T09:47:13;17.50;42.30
38020;DHT22;23829;51.350;17.286;2024-03-06T09:49:40;18.30;40.30
38020;DHT22;23829;51.350;17.286;2024-03-06T09:52:07;18.60;40.10
38020;DHT22;23829;51.350;17.286;2024-03-06T09:54:34;18.50;40.20
38020;DHT22;23829;51.350;17.286;2024-03-06T09:57:00;19.10;39.10
38020;DHT22;23829;51.350;17.286;2024-03-06T09:59:26;19.70;37.80
38020;DHT22;23829;51.350;17.286;2024-03-06T10:01:56;19.60;38.30
38020;DHT22;23829;51.350;17.286;2024-03-06T10:04:23;19.30;38.60
38020;DHT22;23829;51.350;17.286;2024-03-06T10:06:54;19.40;39.00
38020;DHT22;23829;51.350;17.286;2024-03-06T10:09:24;20.00;37.90
38020;DHT22;23829;51.350;17.286;2024-03-06T10:11:51;20.50;37.00
38020;DHT22;23829;51.350;17.286;2024-03-06T10:14:23;20.00;37.10
38020;DHT22;23829;51.350;17.286;2024-03-06T10:16:53;19.50;38.00
38020;DHT22;23829;51.350;17.286;2024-03-06T10:19:20;19.80;38.20
38020;DHT22;23829;51.350;17.286;2024-03-06T10:21:47;20.20;37.90
38020;DHT22;23829;51.350;17.286;2024-03-06T10:24:20;21.10;36.30
38020;DHT22;23829;51.350;17.286;2024-03-06T10:26:54;20.50;37.10
38020;DHT22;23829;51.350;17.286;2024-03-06T10:29:22;20.70;36.70
38020;DHT22;23829;51.350;17.286;2024-03-06T10:31:56;20.80;36.30
38020;DHT22;23829;51.350;17.286;2024-03-06T10:34:29;21.00;36.20
38020;DHT22;23829;51.350;17.286;2024-03-06T10:37:02;21.20;36.10
38020;DHT22;23829;51.350;17.286;2024-03-06T10:39:33;21.40;35.40
38020;DHT22;23829;51.350;17.286;2024-03-06T10:42:07;21.80;34.80
38020;DHT22;23829;51.350;17.286;2024-03-06T10:44:34;22.20;34.10
38020;DHT22;23829;51.350;17.286;2024-03-06T10:47:05;22.10;34.10
38020;DHT22;23829;51.350;17.286;2024-03-06T10:49:32;22.40;33.70
38020;DHT22;23829;51.350;17.286;2024-03-06T10:52:01;22.60;33.50
38020;DHT22;23829;51.350;17.286;2024-03-06T10:54:29;22.10;34.00
38020;DHT22;23829;51.350;17.286;2024-03-06T10:56:57;22.30;33.80
38020;DHT22;23829;51.350;17.286;2024-03-06T10:59:27;21.70;33.80
38020;DHT22;23829;51.350;17.286;2024-03-06T11:01:58;20.50;37.00
38020;DHT22;23829;51.350;17.286;2024-03-06T11:04:29;20.60;36.30
38020;DHT22;23829;51.350;17.286;2024-03-06T11:06:56;21.00;35.40
38020;DHT22;23829;51.350;17.286;2024-03-06T11:09:23;21.50;32.30
38020;DHT22;23829;51.350;17.286;2024-03-06T11:11:51;22.00;30.90
38020;DHT22;23829;51.350;17.286;2024-03-06T11:14:18;20.70;31.70
38020;DHT22;23829;51.350;17.286;2024-03-06T11:16:57;19.70;34.10
38020;DHT22;23829;51.350;17.286;2024-03-06T11:19:25;19.40;35.00
38020;DHT22;23829;51.350;17.286;2024-03-06T11:21:51;19.70;35.00
38020;DHT22;23829;51.350;17.286;2024-03-06T11:24:19;20.70;32.90
38020;DHT22;23829;51.350;17.286;2024-03-06T11:26:56;21.20;31.30
38020;DHT22;23829;51.350;17.286;2024-03-06T11:30:19;21.30;31.30
38020;DHT22;23829;51.350;17.286;2024-03-06T11:32:58;20.40;32.90
38020;DHT22;23829;51.350;17.286;2024-03-06T11:35:29;19.40;34.50
38020;DHT22;23829;51.350;17.286;2024-03-06T11:37:55;19.30;34.90
38020;DHT22;23829;51.350;17.286;2024-03-06T11:40:25;20.20;33.30
38020;DHT22;23829;51.350;17.286;2024-03-06T11:42:51;19.90;33.30
38020;DHT22;23829;51.350;17.286;2024-03-06T11:45:20;21.00;32.90
38020;DHT22;23829;51.350;17.286;2024-03-06T11:47:58;21.00;32.50
38020;DHT22;23829;51.350;17.286;2024-03-06T11:50:29;20.90;33.50
38020;DHT22;23829;51.350;17.286;2024-03-06T11:52:59;20.40;33.60
38020;DHT22;23829;51.350;17.286;2024-03-06T11:55:25;19.50;35.60
38020;DHT22;23829;51.350;17.286;2024-03-06T11:57:52;19.90;35.40
38020;DHT22;23829;51.350;17.286;2024-03-06T12:00:24;19.60;36.10
38020;DHT22;23829;51.350;17.286;2024-03-06T12:02:51;20.40;35.70
38020;DHT22;23829;51.350;17.286;2024-03-06T12:05:20;20.90;34.70
38020;DHT22;23829;51.350;17.286;2024-03-06T12:07:47;21.10;34.00
38020;DHT22;23829;51.350;17.286;2024-03-06T12:10:13;20.40;34.80
38020;DHT22;23829;51.350;17.286;2024-03-06T12:12:44;19.60;35.70
38020;DHT22;23829;51.350;17.286;2024-03-06T12:15:14;19.40;35.90
38020;DHT22;23829;51.350;17.286;2024-03-06T12:17:45;19.80;35.50
38020;DHT22;23829;51.350;17.286;2024-03-06T12:20:18;20.20;35.00
38020;DHT22;23829;51.350;17.286;2024-03-06T12:22:51;19.60;35.70
38020;DHT22;23829;51.350;17.286;2024-03-06T12:27:46;20.00;35.70
38020;DHT22;23829;51.350;17.286;2024-03-06T12:30:22;20.20;35.10
38020;DHT22;23829;51.350;17.286;2024-03-06T12:32:59;20.40;34.70
38020;DHT22;23829;51.350;17.286;2024-03-06T12:35:26;20.60;34.10
38020;DHT22;23829;51.350;17.286;2024-03-06T12:37:53;20.20;34.70
38020;DHT22;23829;51.350;17.286;2024-03-06T12:40:20;20.00;35.30
38020;DHT22;23829;51.350;17.286;2024-03-06T12:42:46;19.80;35.40
38020;DHT22;23829;51.350;17.286;2024-03-06T12:45:13;19.50;36.00
38020;DHT22;23829;51.350;17.286;2024-03-06T12:47:43;19.10;36.80
38020;DHT22;23829;51.350;17.286;2024-03-06T12:50:10;18.90;36.90
38020;DHT22;23829;51.350;17.286;2024-03-06T12:52:37;19.60;36.30
38020;DHT22;23829;51.350;17.286;2024-03-06T12:55:04;20.00;35.10
38020;DHT22;23829;51.350;17.286;2024-03-06T12:57:33;20.30;34.60
38020;DHT22;23829;51.350;17.286;2024-03-06T13:00:00;20.70;34.10
38020;DHT22;23829;51.350;17.286;2024-03-06T13:02:26;20.50;34.40
38020;DHT22;23829;51.350;17.286;2024-03-06T13:04:52;20.40;34.50
38020;DHT22;23829;51.350;17.286;2024-03-06T13:07:19;20.60;35.00
38020;DHT22;23829;51.350;17.286;2024-03-06T13:09:45;20.20;35.20
38020;DHT22;23829;51.350;17.286;2024-03-06T13:12:12;20.50;35.10
38020;DHT22;23829;51.350;17.286;2024-03-06T13:14:38;20.60;35.40
38020;DHT22;23829;51.350;17.286;2024-03-06T13:17:04;20.90;35.10
38020;DHT22;23829;51.350;17.286;2024-03-06T13:19:32;21.30;34.20
38020;DHT22;23829;51.350;17.286;2024-03-06T13:21:58;20.50;35.00
38020;DHT22;23829;51.350;17.286;2024-03-06T13:24:24;20.80;35.20
38020;DHT22;23829;51.350;17.286;2024-03-06T13:26:50;20.10;36.10
38020;DHT22;23829;51.350;17.286;2024-03-06T13:29:17;20.00;36.60
38020;DHT22;23829;51.350;17.286;2024-03-06T13:31:43;20.70;35.40
38020;DHT22;23829;51.350;17.286;2024-03-06T13:34:09;20.90;34.90
38020;DHT22;23829;51.350;17.286;2024-03-06T13:36:36;20.50;36.10
38020;DHT22;23829;51.350;17.286;2024-03-06T13:39:02;20.70;35.40
38020;DHT22;23829;51.350;17.286;2024-03-06T13:41:28;20.90;35.30
38020;DHT22;23829;51.350;17.286;2024-03-06T13:43:56;20.50;36.00
38020;DHT22;23829;51.350;17.286;2024-03-06T13:46:22;20.50;35.60
38020;DHT22;23829;51.350;17.286;2024-03-06T13:48:48;20.20;36.20
38020;DHT22;23829;51.350;17.286;2024-03-06T13:51:15;20.40;36.60
38020;DHT22;23829;51.350;17.286;2024-03-06T13:53:41;20.50;37.30
38020;DHT22;23829;51.350;17.286;2024-03-06T13:56:07;20.80;36.50
38020;DHT22;23829;51.350;17.286;2024-03-06T13:58:34;21.20;35.40
38020;DHT22;23829;51.350;17.286;2024-03-06T14:01:00;21.70;35.30
38020;DHT22;23829;51.350;17.286;2024-03-06T14:03:27;22.20;34.00
38020;DHT22;23829;51.350;17.286;2024-03-06T14:05:53;21.80;34.50
38020;DHT22;23829;51.350;17.286;2024-03-06T14:08:19;21.20;34.80
38020;DHT22;23829;51.350;17.286;2024-03-06T14:10:46;20.90;35.30
38020;DHT22;23829;51.350;17.286;2024-03-06T14:13:13;21.20;35.90
38020;DHT22;23829;51.350;17.286;2024-03-06T14:15:39;21.50;35.40
38020;DHT22;23829;51.350;17.286;2024-03-06T14:18:05;20.80;35.80
38020;DHT22;23829;51.350;17.286;2024-03-06T14:20:32;20.90;36.00
38020;DHT22;23829;51.350;17.286;2024-03-06T14:22:59;20.20;37.20
38020;DHT22;23829;51.350;17.286;2024-03-06T14:25:25;20.20;38.40
38020;DHT22;23829;51.350;17.286;2024-03-06T14:27:52;20.70;36.60
38020;DHT22;23829;51.350;17.286;2024-03-06T14:30:18;20.30;37.30
38020;DHT22;23829;51.350;17.286;2024-03-06T14:32:45;20.70;37.60
38020;DHT22;23829;51.350;17.286;2024-03-06T14:35:12;19.70;38.90
38020;DHT22;23829;51.350;17.286;2024-03-06T14:37:38;20.10;39.70
38020;DHT22;23829;51.350;17.286;2024-03-06T14:40:05;20.80;38.40
38020;DHT22;23829;51.350;17.286;2024-03-06T14:42:35;20.50;38.80
38020;DHT22;23829;51.350;17.286;2024-03-06T14:45:01;19.70;39.90
38020;DHT22;23829;51.350;17.286;2024-03-06T14:47:33;19.60;40.60
38020;DHT22;23829;51.350;17.286;2024-03-06T14:50:00;19.10;41.70
38020;DHT22;23829;51.350;17.286;2024-03-06T14:52:26;19.40;40.70
38020;DHT22;23829;51.350;17.286;2024-03-06T14:54:55;19.20;40.90
38020;DHT22;23829;51.350;17.286;2024-03-06T14:57:22;19.80;41.00
38020;DHT22;23829;51.350;17.286;2024-03-06T14:59:49;19.20;40.90
38020;DHT22;23829;51.350;17.286;2024-03-06T15:02:16;18.80;42.10
38020;DHT22;23829;51.350;17.286;2024-03-06T15:04:42;18.90;42.20
38020;DHT22;23829;51.350;17.286;2024-03-06T15:07:08;18.70;42.80
38020;DHT22;23829;51.350;17.286;2024-03-06T15:09:35;18.60;43.70
38020;DHT22;23829;51.350;17.286;2024-03-06T15:12:02;18.40;43.90
38020;DHT22;23829;51.350;17.286;2024-03-06T15:14:30;19.40;42.60
38020;DHT22;23829;51.350;17.286;2024-03-06T15:16:57;19.20;41.70
38020;DHT22;23829;51.350;17.286;2024-03-06T15:19:23;18.90;43.10